sensor_id;sensor_type;location;lat;lon;timestamp;P1;durP1;ratioP1;P2;durP2;ratioP2
25936;SDS011;13733;51.178;4.450;2023-07-20T00:01:13;13.20;;;4.82;;
25936;SDS011;13733;51.178;4.450;2023-07-20T00:03:39;12.25;;;4.07;;
25936;SDS011;13733;51.178;4.450;2023-07-20T00:06:05;16.88;;;4.63;;
25936;SDS011;13733;51.178;4.450;2023-07-20T00:08:31;12.90;;;4.57;;
25936;SDS011;13733;51.178;4.450;2023-07-20T00:10:56;15.38;;;4.70;;
25936;SDS011;13733;51.178;4.450;2023-07-20T00:13:22;12.15;;;4.63;;
25936;SDS011;13733;51.178;4.450;2023-07-20T00:15:48;14.93;;;4.90;;
25936;SDS011;13733;51.178;4.450;2023-07-20T00:18:14;10.90;;;4.55;;
25936;SDS011;13733;51.178;4.450;2023-07-20T00:20:40;12.93;;;4.40;;
25936;SDS011;13733;51.178;4.450;2023-07-20T00:23:06;15.25;;;4.13;;
25936;SDS011;13733;51.178;4.450;2023-07-20T00:25:32;9.75;;;4.05;;
25936;SDS011;13733;51.178;4.450;2023-07-20T00:27:58;9.00;;;3.92;;
25936;SDS011;13733;51.178;4.450;2023-07-20T00:30:24;12.48;;;4.05;;
25936;SDS011;13733;51.178;4.450;2023-07-20T00:32:50;8.52;;;3.97;;
25936;SDS011;13733;51.178;4.450;2023-07-20T00:35:16;9.95;;;3.97;;
25936;SDS011;13733;51.178;4.450;2023-07-20T00:37:42;9.95;;;4.00;;
25936;SDS011;13733;51.178;4.450;2023-07-20T00:40:07;15.40;;;3.97;;
25936;SDS011;13733;51.178;4.450;2023-07-20T00:42:34;13.13;;;3.97;;
25936;SDS011;13733;51.178;4.450;2023-07-20T00:45:01;10.18;;;3.72;;
25936;SDS011;13733;51.178;4.450;2023-07-20T00:47:28;14.35;;;4.78;;
25936;SDS011;13733;51.178;4.450;2023-07-20T00:49:54;11.13;;;4.25;;
25936;SDS011;13733;51.178;4.450;2023-07-20T00:52:23;10.25;;;3.75;;
25936;SDS011;13733;51.178;4.450;2023-07-20T00:57:16;7.70;;;3.75;;
25936;SDS011;13733;51.178;4.450;2023-07-20T00:59:44;8.20;;;4.30;;
25936;SDS011;13733;51.178;4.450;2023-07-20T01:02:10;11.70;;;4.18;;
25936;SDS011;13733;51.178;4.450;2023-07-20T01:04:35;11.23;;;4.57;;
25936;SDS011;13733;51.178;4.450;2023-07-20T01:10:10;9.05;;;4.22;;
25936;SDS011;13733;51.178;4.450;2023-07-20T01:12:46;10.65;;;4.03;;
25936;SDS011;13733;51.178;4.450;2023-07-20T01:15:16;10.27;;;4.47;;
25936;SDS011;13733;51.178;4.450;2023-07-20T01:17:42;9.15;;;4.03;;
25936;SDS011;13733;51.178;4.450;2023-07-20T01:20:09;11.20;;;4.20;;
25936;SDS011;13733;51.178;4.450;2023-07-20T01:25:34;12.70;;;5.03;;
25936;SDS011;13733;51.178;4.450;2023-07-20T01:28:15;17.45;;;5.63;;
25936;SDS011;13733;51.178;4.450;2023-07-20T01:31:24;11.77;;;4.93;;
25936;SDS011;13733;51.178;4.450;2023-07-20T01:33:54;8.95;;;4.70;;
25936;SDS011;13733;51.178;4.450;2023-07-20T01:36:22;11.70;;;4.85;;
25936;SDS011;13733;51.178;4.450;2023-07-20T01:38:53;9.52;;;4.78;;
25936;SDS011;13733;51.178;4.450;2023-07-20T01:41:20;12.55;;;5.18;;
25936;SDS011;13733;51.178;4.450;2023-07-20T01:43:46;15.13;;;5.28;;
25936;SDS011;13733;51.178;4.450;2023-07-20T01:46:12;8.90;;;4.60;;
25936;SDS011;13733;51.178;4.450;2023-07-20T01:48:38;11.20;;;5.32;;
25936;SDS011;13733;51.178;4.450;2023-07-20T01:51:04;13.80;;;5.63;;
25936;SDS011;13733;51.178;4.450;2023-07-20T01:53:29;13.23;;;6.60;;
25936;SDS011;13733;51.178;4.450;2023-07-20T01:55:56;12.02;;;6.15;;
25936;SDS011;13733;51.178;4.450;2023-07-20T01:58:23;8.40;;;5.22;;
25936;SDS011;13733;51.178;4.450;2023-07-20T02:00:49;10.32;;;5.60;;
25936;SDS011;13733;51.178;4.450;2023-07-20T02:03:15;15.25;;;6.40;;
25936;SDS011;13733;51.178;4.450;2023-07-20T02:05:44;10.57;;;5.93;;
25936;SDS011;13733;51.178;4.450;2023-07-20T02:08:10;12.15;;;5.43;;
25936;SDS011;13733;51.178;4.450;2023-07-20T02:10:36;14.98;;;6.88;;
25936;SDS011;13733;51.178;4.450;2023-07-20T02:13:02;11.68;;;6.20;;
25936;SDS011;13733;51.178;4.450;2023-07-20T02:15:27;9.52;;;5.75;;
25936;SDS011;13733;51.178;4.450;2023-07-20T02:17:53;11.02;;;5.85;;
25936;SDS011;13733;51.178;4.450;2023-07-20T02:20:19;12.25;;;5.90;;
25936;SDS011;13733;51.178;4.450;2023-07-20T02:22:46;11.57;;;6.90;;
25936;SDS011;13733;51.178;4.450;2023-07-20T02:25:12;10.98;;;6.88;;
25936;SDS011;13733;51.178;4.450;2023-07-20T02:27:37;11.57;;;6.72;;
25936;SDS011;13733;51.178;4.450;2023-07-20T02:30:05;17.77;;;7.72;;
25936;SDS011;13733;51.178;4.450;2023-07-20T02:32:31;13.45;;;6.90;;
25936;SDS011;13733;51.178;4.450;2023-07-20T02:34:57;12.93;;;6.93;;
25936;SDS011;13733;51.178;4.450;2023-07-20T02:37:24;18.27;;;7.18;;
25936;SDS011;13733;51.178;4.450;2023-07-20T02:39:50;8.90;;;7.00;;
25936;SDS011;13733;51.178;4.450;2023-07-20T02:42:16;14.32;;;6.75;;
25936;SDS011;13733;51.178;4.450;2023-07-20T02:44:42;11.80;;;7.68;;
25936;SDS011;13733;51.178;4.450;2023-07-20T02:47:07;12.07;;;6.60;;
25936;SDS011;13733;51.178;4.450;2023-07-20T02:49:34;11.77;;;6.80;;
25936;SDS011;13733;51.178;4.450;2023-07-20T02:52:00;13.85;;;7.40;;
25936;SDS011;13733;51.178;4.450;2023-07-20T02:54:26;13.65;;;7.90;;
25936;SDS011;13733;51.178;4.450;2023-07-20T02:56:52;14.77;;;8.27;;
25936;SDS011;13733;51.178;4.450;2023-07-20T02:59:17;14.73;;;8.40;;
25936;SDS011;13733;51.178;4.450;2023-07-20T03:01:44;16.30;;;9.45;;
25936;SDS011;13733;51.178;4.450;2023-07-20T03:04:09;13.15;;;8.35;;
25936;SDS011;13733;51.178;4.450;2023-07-20T03:06:36;15.55;;;9.32;;
25936;SDS011;13733;51.178;4.450;2023-07-20T03:09:02;12.27;;;8.23;;
25936;SDS011;13733;51.178;4.450;2023-07-20T03:11:32;12.73;;;7.40;;
25936;SDS011;13733;51.178;4.450;2023-07-20T03:13:57;13.73;;;8.18;;
25936;SDS011;13733;51.178;4.450;2023-07-20T03:16:23;12.38;;;8.07;;
25936;SDS011;13733;51.178;4.450;2023-07-20T03:18:51;13.07;;;7.47;;
25936;SDS011;13733;51.178;4.450;2023-07-20T03:21:17;9.27;;;7.07;;
25936;SDS011;13733;51.178;4.450;2023-07-20T03:23:42;15.05;;;8.50;;
25936;SDS011;13733;51.178;4.450;2023-07-20T03:26:09;10.65;;;7.22;;
25936;SDS011;13733;51.178;4.450;2023-07-20T03:28:38;12.75;;;7.97;;
25936;SDS011;13733;51.178;4.450;2023-07-20T03:33:34;11.77;;;7.40;;
25936;SDS011;13733;51.178;4.450;2023-07-20T03:36:01;13.70;;;8.43;;
25936;SDS011;13733;51.178;4.450;2023-07-20T03:38:29;12.27;;;8.18;;
25936;SDS011;13733;51.178;4.450;2023-07-20T03:40:56;13.55;;;7.75;;
25936;SDS011;13733;51.178;4.450;2023-07-20T03:43:23;9.88;;;7.35;;
25936;SDS011;13733;51.178;4.450;2023-07-20T03:45:50;12.55;;;7.93;;
25936;SDS011;13733;51.178;4.450;2023-07-20T03:48:17;14.43;;;8.32;;
25936;SDS011;13733;51.178;4.450;2023-07-20T03:50:45;13.32;;;7.93;;
25936;SDS011;13733;51.178;4.450;2023-07-20T03:53:12;13.52;;;8.30;;
25936;SDS011;13733;51.178;4.450;2023-07-20T03:55:38;12.40;;;7.88;;
25936;SDS011;13733;51.178;4.450;2023-07-20T03:58:06;13.50;;;7.47;;
25936;SDS011;13733;51.178;4.450;2023-07-20T04:00:32;12.95;;;7.30;;
25936;SDS011;13733;51.178;4.450;2023-07-20T04:02:58;11.82;;;7.35;;
25936;SDS011;13733;51.178;4.450;2023-07-20T04:05:24;9.27;;;6.75;;
25936;SDS011;13733;51.178;4.450;2023-07-20T04:07:51;7.35;;;6.18;;
25936;SDS011;13733;51.178;4.450;2023-07-20T04:10:17;9.32;;;6.18;;
25936;SDS011;13733;51.178;4.450;2023-07-20T04:12:47;9.23;;;6.45;;
25936;SDS011;13733;51.178;4.450;2023-07-20T04:15:13;10.50;;;7.30;;
25936;SDS011;13733;51.178;4.450;2023-07-20T04:17:39;11.27;;;6.93;;
25936;SDS011;13733;51.178;4.450;2023-07-20T04:20:06;9.60;;;6.57;;
25936;SDS011;13733;51.178;4.450;2023-07-20T04:22:32;9.45;;;6.05;;
25936;SDS011;13733;51.178;4.450;2023-07-20T04:24:58;10.75;;;6.15;;
25936;SDS011;13733;51.178;4.450;2023-07-20T04:27:24;12.02;;;6.78;;
25936;SDS011;13733;51.178;4.450;2023-07-20T04:29:51;10.93;;;6.38;;
25936;SDS011;13733;51.178;4.450;2023-07-20T04:32:17;9.85;;;6.38;;
25936;SDS011;13733;51.178;4.450;2023-07-20T04:34:43;10.02;;;5.88;;
25936;SDS011;13733;51.178;4.450;2023-07-20T04:37:09;9.65;;;5.53;;
25936;SDS011;13733;51.178;4.450;2023-07-20T04:39:36;12.65;;;7.03;;
25936;SDS011;13733;51.178;4.450;2023-07-20T04:42:07;7.65;;;5.50;;
25936;SDS011;13733;51.178;4.450;2023-07-20T04:44:33;8.32;;;5.45;;
25936;SDS011;13733;51.178;4.450;2023-07-20T04:46:59;6.97;;;4.20;;
25936;SDS011;13733;51.178;4.450;2023-07-20T04:49:25;7.35;;;4.75;;
25936;SDS011;13733;51.178;4.450;2023-07-20T04:51:51;6.68;;;4.88;;
25936;SDS011;13733;51.178;4.450;2023-07-20T04:54:17;7.30;;;5.72;;
25936;SDS011;13733;51.178;4.450;2023-07-20T04:56:44;7.78;;;5.97;;
25936;SDS011;13733;51.178;4.450;2023-07-20T04:59:12;9.25;;;5.93;;
25936;SDS011;13733;51.178;4.450;2023-07-20T05:01:38;6.47;;;5.60;;
25936;SDS011;13733;51.178;4.450;2023-07-20T05:04:04;5.95;;;4.50;;
25936;SDS011;13733;51.178;4.450;2023-07-20T05:06:31;6.53;;;4.65;;
25936;SDS011;13733;51.178;4.450;2023-07-20T05:09:00;8.13;;;4.72;;
25936;SDS011;13733;51.178;4.450;2023-07-20T05:11:26;5.30;;;4.50;;
25936;SDS011;13733;51.178;4.450;2023-07-20T05:13:52;6.22;;;4.25;;
25936;SDS011;13733;51.178;4.450;2023-07-20T05:16:17;4.43;;;3.00;;
25936;SDS011;13733;51.178;4.450;2023-07-20T05:18:43;5.32;;;3.30;;
25936;SDS011;13733;51.178;4.450;2023-07-20T05:21:10;6.78;;;4.10;;
25936;SDS011;13733;51.178;4.450;2023-07-20T05:23:36;4.18;;;3.33;;
25936;SDS011;13733;51.178;4.450;2023-07-20T05:26:03;6.75;;;3.15;;
25936;SDS011;13733;51.178;4.450;2023-07-20T05:28:29;4.50;;;3.05;;
25936;SDS011;13733;51.178;4.450;2023-07-20T05:30:55;5.32;;;2.97;;
25936;SDS011;13733;51.178;4.450;2023-07-20T05:33:21;4.00;;;3.60;;
25936;SDS011;13733;51.178;4.450;2023-07-20T05:35:47;5.65;;;3.85;;
25936;SDS011;13733;51.178;4.450;2023-07-20T05:38:13;9.10;;;3.90;;
25936;SDS011;13733;51.178;4.450;2023-07-20T05:40:42;4.28;;;3.85;;
25936;SDS011;13733;51.178;4.450;2023-07-20T05:45:34;5.45;;;3.63;;
25936;SDS011;13733;51.178;4.450;2023-07-20T05:48:00;6.53;;;3.42;;
25936;SDS011;13733;51.178;4.450;2023-07-20T05:50:26;3.83;;;3.33;;
25936;SDS011;13733;51.178;4.450;2023-07-20T05:52:53;9.18;;;3.67;;
25936;SDS011;13733;51.178;4.450;2023-07-20T05:55:19;4.47;;;3.70;;
25936;SDS011;13733;51.178;4.450;2023-07-20T05:57:44;4.43;;;3.20;;
25936;SDS011;13733;51.178;4.450;2023-07-20T06:00:11;3.88;;;3.20;;
25936;SDS011;13733;51.178;4.450;2023-07-20T06:02:38;3.83;;;2.70;;
25936;SDS011;13733;51.178;4.450;2023-07-20T06:05:05;4.45;;;2.38;;
25936;SDS011;13733;51.178;4.450;2023-07-20T06:07:37;5.82;;;2.90;;
25936;SDS011;13733;51.178;4.450;2023-07-20T06:10:03;4.22;;;2.58;;
25936;SDS011;13733;51.178;4.450;2023-07-20T06:12:31;3.15;;;2.03;;
25936;SDS011;13733;51.178;4.450;2023-07-20T06:14:58;4.82;;;2.17;;
25936;SDS011;13733;51.178;4.450;2023-07-20T06:17:27;5.97;;;1.90;;
25936;SDS011;13733;51.178;4.450;2023-07-20T06:19:53;4.03;;;2.35;;
25936;SDS011;13733;51.178;4.450;2023-07-20T06:22:18;3.30;;;2.58;;
25936;SDS011;13733;51.178;4.450;2023-07-20T06:24:44;3.53;;;2.70;;
25936;SDS011;13733;51.178;4.450;2023-07-20T06:27:11;5.03;;;2.50;;
25936;SDS011;13733;51.178;4.450;2023-07-20T06:29:37;6.55;;;3.08;;
25936;SDS011;13733;51.178;4.450;2023-07-20T06:32:04;3.63;;;2.65;;
25936;SDS011;13733;51.178;4.450;2023-07-20T06:34:30;2.65;;;2.28;;
25936;SDS011;13733;51.178;4.450;2023-07-20T06:36:56;8.07;;;3.05;;
25936;SDS011;13733;51.178;4.450;2023-07-20T06:39:22;5.97;;;3.33;;
25936;SDS011;13733;51.178;4.450;2023-07-20T06:41:48;4.03;;;3.40;;
25936;SDS011;13733;51.178;4.450;2023-07-20T06:44:13;3.28;;;2.97;;
25936;SDS011;13733;51.178;4.450;2023-07-20T06:46:39;4.25;;;2.53;;
25936;SDS011;13733;51.178;4.450;2023-07-20T06:49:06;4.10;;;2.85;;
25936;SDS011;13733;51.178;4.450;2023-07-20T06:51:35;5.93;;;3.37;;
25936;SDS011;13733;51.178;4.450;2023-07-20T06:54:01;4.20;;;3.17;;
25936;SDS011;13733;51.178;4.450;2023-07-20T06:56:26;3.83;;;2.92;;
25936;SDS011;13733;51.178;4.450;2023-07-20T06:58:52;5.55;;;3.25;;
25936;SDS011;13733;51.178;4.450;2023-07-20T07:01:18;10.13;;;3.90;;
25936;SDS011;13733;51.178;4.450;2023-07-20T07:03:48;3.72;;;3.20;;
25936;SDS011;13733;51.178;4.450;2023-07-20T07:06:13;4.28;;;3.05;;
25936;SDS011;13733;51.178;4.450;2023-07-20T07:08:39;3.38;;;2.70;;
25936;SDS011;13733;51.178;4.450;2023-07-20T07:11:05;4.85;;;2.80;;
25936;SDS011;13733;51.178;4.450;2023-07-20T07:13:31;3.40;;;2.83;;
25936;SDS011;13733;51.178;4.450;2023-07-20T07:15:56;4.15;;;2.95;;
25936;SDS011;13733;51.178;4.450;2023-07-20T07:18:22;3.58;;;3.13;;
25936;SDS011;13733;51.178;4.450;2023-07-20T07:20:52;4.95;;;3.08;;
25936;SDS011;13733;51.178;4.450;2023-07-20T07:23:19;3.58;;;2.65;;
25936;SDS011;13733;51.178;4.450;2023-07-20T07:25:45;3.35;;;2.47;;
25936;SDS011;13733;51.178;4.450;2023-07-20T07:28:11;3.45;;;2.55;;
25936;SDS011;13733;51.178;4.450;2023-07-20T07:30:37;3.47;;;2.50;;
25936;SDS011;13733;51.178;4.450;2023-07-20T07:33:04;5.47;;;3.20;;
25936;SDS011;13733;51.178;4.450;2023-07-20T07:35:31;7.70;;;3.03;;
25936;SDS011;13733;51.178;4.450;2023-07-20T07:37:57;9.02;;;3.50;;
25936;SDS011;13733;51.178;4.450;2023-07-20T07:40:23;7.00;;;3.80;;
25936;SDS011;13733;51.178;4.450;2023-07-20T07:42:49;5.68;;;3.72;;
25936;SDS011;13733;51.178;4.450;2023-07-20T07:45:14;5.43;;;3.70;;
25936;SDS011;13733;51.178;4.450;2023-07-20T07:47:42;5.28;;;3.22;;
25936;SDS011;13733;51.178;4.450;2023-07-20T07:50:08;3.30;;;3.00;;
25936;SDS011;13733;51.178;4.450;2023-07-20T07:52:35;8.15;;;3.20;;
25936;SDS011;13733;51.178;4.450;2023-07-20T07:55:00;3.72;;;2.70;;
25936;SDS011;13733;51.178;4.450;2023-07-20T07:57:26;4.65;;;2.42;;
25936;SDS011;13733;51.178;4.450;2023-07-20T07:59:52;5.28;;;2.58;;
25936;SDS011;13733;51.178;4.450;2023-07-20T08:02:18;6.25;;;2.83;;
25936;SDS011;13733;51.178;4.450;2023-07-20T08:04:44;3.15;;;2.72;;
25936;SDS011;13733;51.178;4.450;2023-07-20T08:07:10;2.83;;;2.28;;
25936;SDS011;13733;51.178;4.450;2023-07-20T08:09:36;4.07;;;2.20;;
25936;SDS011;13733;51.178;4.450;2023-07-20T08:12:02;6.43;;;2.40;;
25936;SDS011;13733;51.178;4.450;2023-07-20T08:14:28;5.13;;;1.85;;
25936;SDS011;13733;51.178;4.450;2023-07-20T08:16:54;2.30;;;1.80;;
25936;SDS011;13733;51.178;4.450;2023-07-20T08:19:20;3.40;;;2.10;;
25936;SDS011;13733;51.178;4.450;2023-07-20T08:21:46;3.08;;;2.15;;
25936;SDS011;13733;51.178;4.450;2023-07-20T08:24:11;3.60;;;2.05;;
25936;SDS011;13733;51.178;4.450;2023-07-20T08:26:37;2.15;;;1.95;;
25936;SDS011;13733;51.178;4.450;2023-07-20T08:29:03;2.88;;;1.95;;
25936;SDS011;13733;51.178;4.450;2023-07-20T08:31:29;2.17;;;1.90;;
25936;SDS011;13733;51.178;4.450;2023-07-20T08:33:54;3.10;;;1.98;;
25936;SDS011;13733;51.178;4.450;2023-07-20T08:36:22;2.05;;;1.38;;
25936;SDS011;13733;51.178;4.450;2023-07-20T08:38:48;3.92;;;1.90;;
25936;SDS011;13733;51.178;4.450;2023-07-20T08:41:14;3.72;;;1.83;;
25936;SDS011;13733;51.178;4.450;2023-07-20T08:43:41;2.70;;;1.70;;
25936;SDS011;13733;51.178;4.450;2023-07-20T08:46:10;3.60;;;1.98;;
25936;SDS011;13733;51.178;4.450;2023-07-20T08:48:37;6.53;;;2.28;;
25936;SDS011;13733;51.178;4.450;2023-07-20T08:51:06;2.35;;;1.80;;
25936;SDS011;13733;51.178;4.450;2023-07-20T08:53:31;2.30;;;1.95;;
25936;SDS011;13733;51.178;4.450;2023-07-20T08:55:59;6.68;;;2.40;;
25936;SDS011;13733;51.178;4.450;2023-07-20T08:58:26;3.58;;;2.13;;
25936;SDS011;13733;51.178;4.450;2023-07-20T09:00:53;3.65;;;1.83;;
25936;SDS011;13733;51.178;4.450;2023-07-20T09:03:21;2.17;;;1.55;;
25936;SDS011;13733;51.178;4.450;2023-07-20T09:05:47;5.25;;;2.10;;
25936;SDS011;13733;51.178;4.450;2023-07-20T09:08:13;4.78;;;1.70;;
25936;SDS011;13733;51.178;4.450;2023-07-20T09:10:39;3.38;;;1.80;;
25936;SDS011;13733;51.178;4.450;2023-07-20T09:13:04;2.70;;;1.45;;
25936;SDS011;13733;51.178;4.450;2023-07-20T09:15:30;2.72;;;2.08;;
25936;SDS011;13733;51.178;4.450;2023-07-20T09:17:56;5.20;;;2.08;;
25936;SDS011;13733;51.178;4.450;2023-07-20T09:20:26;2.72;;;2.10;;
25936;SDS011;13733;51.178;4.450;2023-07-20T09:25:21;3.40;;;1.60;;
25936;SDS011;13733;51.178;4.450;2023-07-20T09:27:48;3.90;;;2.00;;
25936;SDS011;13733;51.178;4.450;2023-07-20T09:30:15;3.45;;;1.73;;
25936;SDS011;13733;51.178;4.450;2023-07-20T09:32:48;1.92;;;1.60;;
25936;SDS011;13733;51.178;4.450;2023-07-20T09:35:16;3.92;;;1.63;;
25936;SDS011;13733;51.178;4.450;2023-07-20T09:37:50;5.78;;;2.30;;
25936;SDS011;13733;51.178;4.450;2023-07-20T09:40:19;2.63;;;1.77;;
25936;SDS011;13733;51.178;4.450;2023-07-20T09:42:45;3.55;;;1.90;;
25936;SDS011;13733;51.178;4.450;2023-07-20T09:45:11;5.90;;;1.77;;
25936;SDS011;13733;51.178;4.450;2023-07-20T09:47:37;3.28;;;1.95;;
25936;SDS011;13733;51.178;4.450;2023-07-20T09:50:04;3.63;;;2.13;;
25936;SDS011;13733;51.178;4.450;2023-07-20T09:52:35;4.78;;;1.98;;
25936;SDS011;13733;51.178;4.450;2023-07-20T09:55:08;3.47;;;2.03;;
25936;SDS011;13733;51.178;4.450;2023-07-20T09:57:36;4.15;;;2.20;;
25936;SDS011;13733;51.178;4.450;2023-07-20T10:00:06;2.00;;;1.80;;
25936;SDS011;13733;51.178;4.450;2023-07-20T10:02:41;3.92;;;2.03;;
25936;SDS011;13733;51.178;4.450;2023-07-20T10:05:09;2.90;;;1.73;;
25936;SDS011;13733;51.178;4.450;2023-07-20T10:07:40;2.78;;;1.60;;
25936;SDS011;13733;51.178;4.450;2023-07-20T10:10:18;2.70;;;1.80;;
25936;SDS011;13733;51.178;4.450;2023-07-20T10:12:49;4.25;;;1.60;;
25936;SDS011;13733;51.178;4.450;2023-07-20T10:15:24;7.50;;;1.83;;
25936;SDS011;13733;51.178;4.450;2023-07-20T10:18:14;3.00;;;1.67;;
25936;SDS011;13733;51.178;4.450;2023-07-20T10:20:48;3.10;;;1.40;;
25936;SDS011;13733;51.178;4.450;2023-07-20T10:23:16;4.70;;;1.60;;
25936;SDS011;13733;51.178;4.450;2023-07-20T10:25:43;2.40;;;1.55;;
25936;SDS011;13733;51.178;4.450;2023-07-20T10:28:10;3.80;;;1.50;;
25936;SDS011;13733;51.178;4.450;2023-07-20T10:30:36;3.38;;;1.70;;
25936;SDS011;13733;51.178;4.450;2023-07-20T10:33:02;2.35;;;1.70;;
25936;SDS011;13733;51.178;4.450;2023-07-20T10:35:29;2.53;;;1.60;;
25936;SDS011;13733;51.178;4.450;2023-07-20T10:38:01;2.67;;;1.55;;
25936;SDS011;13733;51.178;4.450;2023-07-20T10:40:31;3.55;;;1.27;;
25936;SDS011;13733;51.178;4.450;2023-07-20T10:43:00;6.55;;;1.48;;
25936;SDS011;13733;51.178;4.450;2023-07-20T10:45:33;1.85;;;1.30;;
25936;SDS011;13733;51.178;4.450;2023-07-20T10:48:04;3.85;;;1.40;;
25936;SDS011;13733;51.178;4.450;2023-07-20T10:50:32;4.68;;;1.55;;
25936;SDS011;13733;51.178;4.450;2023-07-20T10:53:15;2.33;;;1.48;;
25936;SDS011;13733;51.178;4.450;2023-07-20T10:55:43;3.15;;;1.30;;
25936;SDS011;13733;51.178;4.450;2023-07-20T10:58:13;2.70;;;1.23;;
25936;SDS011;13733;51.178;4.450;2023-07-20T11:00:55;2.22;;;1.20;;
25936;SDS011;13733;51.178;4.450;2023-07-20T11:03:31;1.48;;;1.00;;
25936;SDS011;13733;51.178;4.450;2023-07-20T11:09:14;4.18;;;1.05;;
25936;SDS011;13733;51.178;4.450;2023-07-20T11:11:41;1.60;;;1.00;;
25936;SDS011;13733;51.178;4.450;2023-07-20T11:14:09;1.45;;;0.90;;
25936;SDS011;13733;51.178;4.450;2023-07-20T11:16:45;2.28;;;0.93;;
25936;SDS011;13733;51.178;4.450;2023-07-20T11:19:30;2.83;;;1.00;;
25936;SDS011;13733;51.178;4.450;2023-07-20T11:21:57;2.20;;;1.20;;
25936;SDS011;13733;51.178;4.450;2023-07-20T11:24:23;1.90;;;1.02;;
25936;SDS011;13733;51.178;4.450;2023-07-20T11:26:49;1.27;;;1.10;;
25936;SDS011;13733;51.178;4.450;2023-07-20T11:29:17;3.08;;;1.00;;
25936;SDS011;13733;51.178;4.450;2023-07-20T11:31:48;3.10;;;1.00;;
25936;SDS011;13733;51.178;4.450;2023-07-20T11:34:16;3.47;;;0.82;;
25936;SDS011;13733;51.178;4.450;2023-07-20T11:36:45;0.95;;;0.90;;
25936;SDS011;13733;51.178;4.450;2023-07-20T11:39:13;4.30;;;1.20;;
25936;SDS011;13733;51.178;4.450;2023-07-20T11:41:44;2.97;;;1.17;;
25936;SDS011;13733;51.178;4.450;2023-07-20T11:44:12;1.60;;;1.10;;
25936;SDS011;13733;51.178;4.450;2023-07-20T11:46:39;1.10;;;1.00;;
25936;SDS011;13733;51.178;4.450;2023-07-20T11:49:05;1.65;;;1.00;;
25936;SDS011;13733;51.178;4.450;2023-07-20T11:51:32;3.20;;;1.20;;
25936;SDS011;13733;51.178;4.450;2023-07-20T11:54:00;1.42;;;1.00;;
25936;SDS011;13733;51.178;4.450;2023-07-20T11:56:27;2.05;;;1.10;;
25936;SDS011;13733;51.178;4.450;2023-07-20T11:58:57;2.35;;;1.08;;
25936;SDS011;13733;51.178;4.450;2023-07-20T12:01:25;1.60;;;1.10;;
25936;SDS011;13733;51.178;4.450;2023-07-20T12:03:57;2.10;;;0.90;;
25936;SDS011;13733;51.178;4.450;2023-07-20T12:06:24;2.03;;;0.90;;
25936;SDS011;13733;51.178;4.450;2023-07-20T12:08:54;1.50;;;1.08;;
25936;SDS011;13733;51.178;4.450;2023-07-20T12:13:58;1.67;;;1.00;;
25936;SDS011;13733;51.178;4.450;2023-07-20T12:16:26;2.50;;;1.25;;
25936;SDS011;13733;51.178;4.450;2023-07-20T12:19:00;2.08;;;1.30;;
25936;SDS011;13733;51.178;4.450;2023-07-20T12:21:26;2.70;;;1.30;;
25936;SDS011;13733;51.178;4.450;2023-07-20T12:23:52;3.42;;;1.02;;
25936;SDS011;13733;51.178;4.450;2023-07-20T12:26:18;2.58;;;1.15;;
25936;SDS011;13733;51.178;4.450;2023-07-20T12:28:47;2.00;;;1.35;;
25936;SDS011;13733;51.178;4.450;2023-07-20T12:31:14;1.35;;;1.10;;
25936;SDS011;13733;51.178;4.450;2023-07-20T12:33:39;1.17;;;1.08;;
25936;SDS011;13733;51.178;4.450;2023-07-20T12:36:05;1.27;;;1.17;;
25936;SDS011;13733;51.178;4.450;2023-07-20T12:38:31;1.30;;;1.20;;
25936;SDS011;13733;51.178;4.450;2023-07-20T12:40:57;2.63;;;1.45;;
25936;SDS011;13733;51.178;4.450;2023-07-20T12:43:26;2.78;;;1.25;;
25936;SDS011;13733;51.178;4.450;2023-07-20T12:45:52;2.08;;;1.30;;
25936;SDS011;13733;51.178;4.450;2023-07-20T12:48:18;2.80;;;1.48;;
25936;SDS011;13733;51.178;4.450;2023-07-20T12:50:44;2.08;;;1.52;;
25936;SDS011;13733;51.178;4.450;2023-07-20T12:53:10;4.85;;;1.35;;
25936;SDS011;13733;51.178;4.450;2023-07-20T12:55:35;1.98;;;1.48;;
25936;SDS011;13733;51.178;4.450;2023-07-20T12:58:03;2.40;;;1.55;;
25936;SDS011;13733;51.178;4.450;2023-07-20T13:00:29;3.63;;;1.60;;
25936;SDS011;13733;51.178;4.450;2023-07-20T13:02:54;6.50;;;1.50;;
25936;SDS011;13733;51.178;4.450;2023-07-20T13:05:20;4.38;;;1.55;;
25936;SDS011;13733;51.178;4.450;2023-07-20T13:07:46;2.38;;;1.60;;
25936;SDS011;13733;51.178;4.450;2023-07-20T13:10:12;1.92;;;1.58;;
25936;SDS011;13733;51.178;4.450;2023-07-20T13:12:38;3.38;;;1.55;;
25936;SDS011;13733;51.178;4.450;2023-07-20T13:15:04;2.40;;;1.70;;
25936;SDS011;13733;51.178;4.450;2023-07-20T13:17:32;1.48;;;1.38;;
25936;SDS011;13733;51.178;4.450;2023-07-20T13:19:58;2.33;;;1.55;;
25936;SDS011;13733;51.178;4.450;2023-07-20T13:22:24;4.50;;;1.77;;
25936;SDS011;13733;51.178;4.450;2023-07-20T13:24:50;2.65;;;1.98;;
25936;SDS011;13733;51.178;4.450;2023-07-20T13:27:16;1.85;;;1.70;;
25936;SDS011;13733;51.178;4.450;2023-07-20T13:29:43;1.80;;;1.67;;
25936;SDS011;13733;51.178;4.450;2023-07-20T13:32:09;2.05;;;1.80;;
25936;SDS011;13733;51.178;4.450;2023-07-20T13:34:35;2.60;;;1.90;;
25936;SDS011;13733;51.178;4.450;2023-07-20T13:37:01;1.50;;;1.40;;
25936;SDS011;13733;51.178;4.450;2023-07-20T13:39:27;3.10;;;1.58;;
25936;SDS011;13733;51.178;4.450;2023-07-20T13:41:53;6.85;;;1.80;;
25936;SDS011;13733;51.178;4.450;2023-07-20T13:44:20;4.78;;;1.80;;
25936;SDS011;13733;51.178;4.450;2023-07-20T13:46:46;5.63;;;2.38;;
25936;SDS011;13733;51.178;4.450;2023-07-20T13:49:12;4.32;;;1.70;;
25936;SDS011;13733;51.178;4.450;2023-07-20T13:51:39;3.75;;;1.63;;
25936;SDS011;13733;51.178;4.450;2023-07-20T13:54:06;2.40;;;1.83;;
25936;SDS011;13733;51.178;4.450;2023-07-20T13:56:32;1.70;;;1.60;;
25936;SDS011;13733;51.178;4.450;2023-07-20T13:58:57;2.90;;;1.70;;
25936;SDS011;13733;51.178;4.450;2023-07-20T14:01:23;2.80;;;1.65;;
25936;SDS011;13733;51.178;4.450;2023-07-20T14:03:50;5.28;;;2.95;;
25936;SDS011;13733;51.178;4.450;2023-07-20T14:06:16;4.07;;;2.65;;
25936;SDS011;13733;51.178;4.450;2023-07-20T14:08:42;5.95;;;2.25;;
25936;SDS011;13733;51.178;4.450;2023-07-20T14:11:13;2.28;;;2.08;;
25936;SDS011;13733;51.178;4.450;2023-07-20T14:13:38;2.13;;;1.92;;
25936;SDS011;13733;51.178;4.450;2023-07-20T14:16:04;3.20;;;2.53;;
25936;SDS011;13733;51.178;4.450;2023-07-20T14:18:30;2.55;;;2.20;;
25936;SDS011;13733;51.178;4.450;2023-07-20T14:20:56;3.17;;;2.75;;
25936;SDS011;13733;51.178;4.450;2023-07-20T14:23:22;5.30;;;2.67;;
25936;SDS011;13733;51.178;4.450;2023-07-20T14:25:48;4.60;;;2.83;;
25936;SDS011;13733;51.178;4.450;2023-07-20T14:28:14;3.55;;;2.60;;
25936;SDS011;13733;51.178;4.450;2023-07-20T14:30:41;5.63;;;2.30;;
25936;SDS011;13733;51.178;4.450;2023-07-20T14:33:06;2.55;;;2.30;;
25936;SDS011;13733;51.178;4.450;2023-07-20T14:35:33;2.78;;;2.42;;
25936;SDS011;13733;51.178;4.450;2023-07-20T14:37:59;2.50;;;2.20;;
25936;SDS011;13733;51.178;4.450;2023-07-20T14:40:25;4.38;;;2.58;;
25936;SDS011;13733;51.178;4.450;2023-07-20T14:42:51;4.15;;;2.95;;
25936;SDS011;13733;51.178;4.450;2023-07-20T14:45:17;8.02;;;3.08;;
25936;SDS011;13733;51.178;4.450;2023-07-20T14:47:43;4.45;;;2.78;;
25936;SDS011;13733;51.178;4.450;2023-07-20T14:50:10;4.70;;;2.40;;
25936;SDS011;13733;51.178;4.450;2023-07-20T14:52:36;4.32;;;2.30;;
25936;SDS011;13733;51.178;4.450;2023-07-20T14:55:03;4.93;;;2.55;;
25936;SDS011;13733;51.178;4.450;2023-07-20T14:57:29;2.80;;;1.77;;
25936;SDS011;13733;51.178;4.450;2023-07-20T14:59:55;3.20;;;2.10;;
25936;SDS011;13733;51.178;4.450;2023-07-20T15:02:21;4.13;;;2.22;;
25936;SDS011;13733;51.178;4.450;2023-07-20T15:04:49;3.67;;;1.67;;
25936;SDS011;13733;51.178;4.450;2023-07-20T15:07:19;3.37;;;2.10;;